createdAt,value
2022-09-28T20:43:40.260Z,99463.53
2022-09-28T20:46:10.376Z,99465.50
2022-09-28T20:48:37.878Z,99464.66
2022-09-28T20:51:13.386Z,99468.53
2022-09-28T20:53:41.693Z,99475.94
2022-09-28T20:56:13.232Z,99469.69
2022-09-28T20:58:41.409Z,99471.63
2022-09-28T21:01:08.057Z,99476.41
2022-09-28T21:03:35.500Z,99474.88
2022-09-28T21:06:03.016Z,99476.78
2022-09-28T21:08:30.954Z,99475.34
2022-09-28T21:10:57.810Z,99465.41
2022-09-28T21:13:26.243Z,99475.69
2022-09-28T21:15:52.945Z,99467.38
2022-09-28T21:18:20.949Z,99472.94
2022-09-28T21:20:49.428Z,99471.78
2022-09-28T21:23:20.547Z,99473.97
2022-09-28T21:25:49.316Z,99476.69
2022-09-28T21:28:17.422Z,99483.13
2022-09-28T21:30:45.634Z,99482.06
2022-09-28T21:33:12.226Z,99487.66
2022-09-28T21:35:39.306Z,99486.09
2022-09-28T21:38:05.944Z,99486.16
2022-09-28T21:40:32.674Z,99486.25
2022-09-28T21:42:59.270Z,99486.53
2022-09-28T21:45:25.904Z,99491.47
2022-09-28T21:47:53.533Z,99495.50
2022-09-28T21:50:24.440Z,99490.09
2022-09-28T21:52:53.169Z,99490.25
2022-09-28T21:55:21.964Z,99487.44
2022-09-28T21:57:53.058Z,99485.84
2022-09-28T22:00:23.185Z,99499.84
2022-09-28T22:02:50.967Z,99499.91
2022-09-28T22:05:19.139Z,99494.94
2022-09-28T22:07:45.747Z,99497.97
2022-09-28T22:10:14.508Z,99497.16
2022-09-28T22:12:41.334Z,99500.22
2022-09-28T22:15:08.695Z,99500.13
2022-09-28T22:17:37.994Z,99498.88
2022-09-28T22:20:05.594Z,99502.91
2022-09-28T22:22:32.287Z,99497.69
2022-09-28T22:24:59.016Z,99497.47
2022-09-28T22:27:25.723Z,99500.69
2022-09-28T22:29:52.324Z,99504.66
2022-09-28T22:32:18.928Z,99498.16
2022-09-28T22:34:45.510Z,99508.63
2022-09-28T22:37:12.060Z,99505.53
2022-09-28T22:39:41.004Z,99507.78
2022-09-28T22:42:08.269Z,99513.69
2022-09-28T22:44:35.858Z,99512.91
2022-09-28T22:47:03.185Z,99517.03
2022-09-28T22:49:29.905Z,99519.63
2022-09-28T22:51:56.557Z,99520.84
2022-09-28T22:54:23.178Z,99519.63
2022-09-28T22:56:49.726Z,99515.66
2022-09-28T22:59:16.300Z,99521.94
2022-09-28T23:01:43.168Z,99527.97
2022-09-28T23:04:09.828Z,99528.28
2022-09-28T23:06:36.671Z,99531.03
2022-09-28T23:09:03.612Z,99526.22
2022-09-28T23:11:30.251Z,99521.94
2022-09-28T23:13:59.211Z,99532.22
2022-09-28T23:16:26.624Z,99534.41
2022-09-28T23:18:55.108Z,99531.66
2022-09-28T23:21:24.481Z,99538.16
2022-09-28T23:23:54.006Z,99536.38
2022-09-28T23:26:23.792Z,99534.22
2022-09-28T23:28:51.205Z,99528.38
2022-09-28T23:31:20.747Z,99530.16
2022-09-28T23:33:47.731Z,99526.97
2022-09-28T23:36:15.064Z,99523.50
2022-09-28T23:38:41.677Z,99523.84
2022-09-28T23:41:09.009Z,99521.69
2022-09-28T23:43:36.264Z,99528.56
2022-09-28T23:46:04.672Z,99524.78
2022-09-28T23:48:31.833Z,99533.56
2022-09-28T23:50:58.504Z,99532.22
2022-09-28T23:53:25.263Z,99526.09
2022-09-28T23:55:51.933Z,99532.41
2022-09-28T23:58:18.689Z,99528.50
